createdAt,value
2018-07-08T00:02:03.519Z,99.00
2018-07-08T00:04:33.083Z,99.30
2018-07-08T00:07:02.672Z,99.30
2018-07-08T00:09:32.304Z,99.20
2018-07-08T00:12:01.783Z,99.10
2018-07-08T00:14:31.328Z,99.10
2018-07-08T00:17:00.905Z,99.10
2018-07-08T00:19:30.447Z,99.20
2018-07-08T00:22:00.142Z,99.30
2018-07-08T00:24:29.586Z,99.40
2018-07-08T00:26:59.189Z,99.50
2018-07-08T00:29:28.764Z,99.60
2018-07-08T00:31:58.126Z,99.70
2018-07-08T00:34:27.397Z,99.80
2018-07-08T00:36:56.714Z,99.90
2018-07-08T00:39:26.020Z,99.90
2018-07-08T00:41:55.368Z,99.90
2018-07-08T00:44:24.687Z,99.90
2018-07-08T00:46:54.091Z,99.90
2018-07-08T00:49:23.418Z,99.90
2018-07-08T00:51:52.760Z,99.90
2018-07-08T00:54:22.096Z,99.90
2018-07-08T00:56:51.760Z,99.90
2018-07-08T00:59:21.093Z,99.90
2018-07-08T01:01:50.438Z,99.90
2018-07-08T01:04:19.738Z,99.90
2018-07-08T01:06:49.080Z,99.90
2018-07-08T01:09:18.425Z,99.90
2018-07-08T01:11:47.858Z,99.90
2018-07-08T01:14:17.201Z,99.90
2018-07-08T01:16:46.514Z,99.90
2018-07-08T01:19:15.839Z,99.90
2018-07-08T01:21:45.196Z,99.90
2018-07-08T01:24:14.471Z,99.90
2018-07-08T01:26:44.085Z,99.90
2018-07-08T01:29:13.591Z,99.90
2018-07-08T01:31:43.137Z,99.90
2018-07-08T01:34:12.771Z,99.90
2018-07-08T01:36:42.291Z,99.90
2018-07-08T01:39:11.896Z,99.90
2018-07-08T01:41:41.285Z,99.90
2018-07-08T01:44:10.612Z,99.90
2018-07-08T01:46:39.917Z,99.90
2018-07-08T01:49:09.216Z,99.90
2018-07-08T01:51:38.544Z,99.90
2018-07-08T01:54:07.925Z,99.90
2018-07-08T01:56:37.506Z,99.90
2018-07-08T01:59:07.105Z,99.90
2018-07-08T02:01:36.648Z,99.90
2018-07-08T02:04:06.434Z,99.90
2018-07-08T02:06:35.967Z,99.90
2018-07-08T02:09:05.590Z,99.90
2018-07-08T02:11:35.205Z,99.90
2018-07-08T02:14:04.770Z,99.90
2018-07-08T02:16:34.331Z,99.90
2018-07-08T02:19:03.919Z,99.90
2018-07-08T02:21:33.481Z,99.90
2018-07-08T02:24:03.064Z,99.90
2018-07-08T02:26:32.648Z,99.90
2018-07-08T02:29:02.189Z,99.90
2018-07-08T02:31:31.813Z,99.90
2018-07-08T02:34:01.448Z,99.90
2018-07-08T02:36:31.009Z,99.90
2018-07-08T02:39:00.476Z,99.90
2018-07-08T02:41:30.026Z,99.90
2018-07-08T02:43:59.748Z,99.90
2018-07-08T02:46:29.321Z,99.90
2018-07-08T02:48:58.640Z,99.90
2018-07-08T02:51:28.876Z,99.90
2018-07-08T02:53:58.156Z,99.90
2018-07-08T02:56:27.457Z,99.90
2018-07-08T02:58:56.745Z,99.90
2018-07-08T03:01:26.089Z,99.90
2018-07-08T03:03:55.432Z,99.90
2018-07-08T03:06:24.717Z,99.90
2018-07-08T03:08:54.135Z,99.90
2018-07-08T03:11:23.475Z,99.90
2018-07-08T03:13:52.784Z,99.90
2018-07-08T03:16:22.050Z,99.90
2018-07-08T03:18:51.358Z,99.90
2018-07-08T03:21:20.653Z,99.90
2018-07-08T03:23:49.953Z,99.90
2018-07-08T03:26:19.232Z,99.90
2018-07-08T03:28:48.553Z,99.90
2018-07-08T03:31:17.816Z,99.90
2018-07-08T03:33:47.137Z,99.90
2018-07-08T03:36:16.507Z,99.90
2018-07-08T03:38:46.006Z,99.90
2018-07-08T03:41:15.328Z,99.90
2018-07-08T03:43:44.595Z,99.90
2018-07-08T03:46:13.940Z,99.90
2018-07-08T03:48:43.332Z,99.90
2018-07-08T03:51:12.688Z,99.90
2018-07-08T03:53:42.000Z,99.90
2018-07-08T03:56:11.357Z,99.90
2018-07-08T03:58:40.622Z,99.90
2018-07-08T04:01:09.966Z,99.90
2018-07-08T04:03:39.349Z,99.90
2018-07-08T04:06:08.673Z,99.90
2018-07-08T04:08:37.974Z,99.90
2018-07-08T04:11:07.569Z,99.90
2018-07-08T04:13:36.877Z,99.90
2018-07-08T04:16:07.624Z,99.90
2018-07-08T04:18:36.952Z,99.90
2018-07-08T04:21:06.365Z,99.90
2018-07-08T04:23:35.665Z,99.90
2018-07-08T04:26:05.020Z,99.90
2018-07-08T04:28:34.308Z,99.90
2018-07-08T04:31:03.673Z,99.90
2018-07-08T04:33:32.981Z,99.90
2018-07-08T04:36:02.404Z,99.90
2018-07-08T04:38:31.680Z,99.90
2018-07-08T04:41:00.996Z,99.90
2018-07-08T04:43:30.257Z,99.90
2018-07-08T04:45:59.561Z,99.90
2018-07-08T04:48:28.846Z,99.90
2018-07-08T04:50:58.155Z,99.90
2018-07-08T04:53:27.448Z,99.90
2018-07-08T04:55:56.804Z,99.90
2018-07-08T04:58:26.047Z,99.90
2018-07-08T05:00:55.392Z,99.90
2018-07-08T05:03:24.857Z,99.90
2018-07-08T05:05:54.472Z,99.90
2018-07-08T05:08:24.051Z,99.90
2018-07-08T05:10:53.641Z,99.90
2018-07-08T05:13:23.127Z,99.90
2018-07-08T05:15:52.604Z,99.90
2018-07-08T05:18:22.140Z,99.90
2018-07-08T05:20:51.585Z,99.90
2018-07-08T05:23:21.149Z,99.90
2018-07-08T05:25:50.716Z,99.90
2018-07-08T05:28:20.237Z,99.90
2018-07-08T05:30:49.722Z,99.90
2018-07-08T05:33:19.309Z,99.90
2018-07-08T05:35:48.856Z,99.90
2018-07-08T05:38:18.585Z,99.90
2018-07-08T05:40:48.072Z,99.90
2018-07-08T05:43:17.396Z,99.90
2018-07-08T05:45:46.687Z,99.90
2018-07-08T05:48:16.004Z,99.90
2018-07-08T05:50:45.268Z,99.90
2018-07-08T05:53:14.644Z,99.90
2018-07-08T05:55:43.984Z,99.90
2018-07-08T05:58:13.325Z,99.90
2018-07-08T06:00:42.607Z,99.90
2018-07-08T06:03:11.996Z,99.90
2018-07-08T06:05:41.314Z,99.90
2018-07-08T06:08:10.614Z,99.90
2018-07-08T06:10:39.932Z,99.90
2018-07-08T06:13:09.247Z,99.90
2018-07-08T06:15:38.537Z,99.90
2018-07-08T06:18:07.984Z,99.90
2018-07-08T06:20:37.417Z,99.90
2018-07-08T06:23:06.757Z,99.90
2018-07-08T06:25:36.066Z,99.90
2018-07-08T06:28:05.884Z,99.90
2018-07-08T06:30:35.522Z,99.90
2018-07-08T06:33:06.006Z,99.90
2018-07-08T06:35:35.833Z,99.90
2018-07-08T06:38:05.480Z,99.90
2018-07-08T06:40:35.017Z,99.80
2018-07-08T06:43:04.584Z,99.50
2018-07-08T06:45:35.155Z,99.40
2018-07-08T06:48:04.957Z,99.20
2018-07-08T06:50:35.225Z,99.10
2018-07-08T06:53:05.167Z,98.50
2018-07-08T06:55:34.696Z,98.30
2018-07-08T06:58:04.008Z,98.30
2018-07-08T07:00:33.296Z,98.00
2018-07-08T07:03:02.733Z,97.60
2018-07-08T07:05:32.045Z,97.20
2018-07-08T07:08:01.332Z,97.30
2018-07-08T07:10:30.674Z,97.50
2018-07-08T07:12:59.992Z,97.70
2018-07-08T07:15:29.321Z,97.20
2018-07-08T07:17:59.125Z,97.00
2018-07-08T07:20:28.857Z,96.80
2018-07-08T07:22:58.541Z,96.50
2018-07-08T07:25:28.199Z,95.70
2018-07-08T07:27:58.634Z,95.10
2018-07-08T07:30:28.640Z,95.30
2018-07-08T07:32:58.256Z,94.80
2018-07-08T07:35:27.764Z,93.90
2018-07-08T07:37:57.078Z,91.50
2018-07-08T07:40:26.353Z,90.30
2018-07-08T07:42:55.621Z,90.80
2018-07-08T07:45:25.000Z,89.10
2018-07-08T07:47:54.367Z,87.30
2018-07-08T07:50:23.680Z,86.80
2018-07-08T07:52:52.956Z,85.20
2018-07-08T07:55:22.272Z,86.00
2018-07-08T07:57:51.585Z,87.50
2018-07-08T08:00:21.028Z,85.60
2018-07-08T08:02:50.320Z,84.50
2018-07-08T08:05:19.668Z,84.30
2018-07-08T08:07:49.058Z,82.80
2018-07-08T08:10:18.385Z,82.90
2018-07-08T08:12:47.697Z,83.20
2018-07-08T08:15:17.013Z,83.70
2018-07-08T08:17:46.315Z,84.30
2018-07-08T08:20:15.632Z,85.00
2018-07-08T08:22:44.905Z,84.90
2018-07-08T08:25:14.234Z,80.10
2018-07-08T08:27:43.541Z,80.00
2018-07-08T08:30:12.882Z,78.10
2018-07-08T08:32:42.181Z,75.50
2018-07-08T08:35:12.512Z,72.60
2018-07-08T08:37:43.905Z,71.70
2018-07-08T08:40:13.848Z,71.50
2018-07-08T08:42:43.304Z,71.90
2018-07-08T08:45:13.842Z,71.10
2018-07-08T08:47:43.296Z,69.70
2018-07-08T08:50:13.302Z,68.60
2018-07-08T08:52:42.618Z,69.70
2018-07-08T08:55:12.597Z,68.80
2018-07-08T08:57:41.982Z,69.30
2018-07-08T09:00:12.677Z,65.60
2018-07-08T09:02:42.277Z,68.00
2018-07-08T09:05:11.920Z,68.40
2018-07-08T09:07:41.454Z,65.60
2018-07-08T09:10:11.134Z,66.70
2018-07-08T09:12:40.872Z,63.40
2018-07-08T09:15:10.576Z,63.50
2018-07-08T09:17:40.198Z,64.00
2018-07-08T09:20:09.656Z,66.20
2018-07-08T09:22:39.131Z,69.60
2018-07-08T09:25:09.958Z,67.00
2018-07-08T09:27:40.370Z,65.60
2018-07-08T09:30:10.894Z,65.70
2018-07-08T09:32:40.853Z,67.30
2018-07-08T09:35:10.395Z,66.10
2018-07-08T09:37:40.347Z,65.00
2018-07-08T09:40:10.136Z,64.60
2018-07-08T09:42:39.833Z,63.70
2018-07-08T09:45:09.376Z,64.10
2018-07-08T09:47:38.701Z,62.00
2018-07-08T09:50:08.297Z,61.20
2018-07-08T09:52:37.893Z,62.20
2018-07-08T09:55:07.475Z,62.30
2018-07-08T09:57:36.953Z,62.90
2018-07-08T10:00:06.850Z,59.60
2018-07-08T10:02:36.181Z,59.80
2018-07-08T10:05:05.545Z,62.80
2018-07-08T10:07:34.893Z,59.00
2018-07-08T10:10:04.241Z,62.70
2018-07-08T10:12:33.528Z,59.00
2018-07-08T10:15:02.797Z,59.80
2018-07-08T10:17:32.103Z,59.70
2018-07-08T10:20:01.434Z,61.00
2018-07-08T10:22:30.767Z,63.20
2018-07-08T10:25:00.038Z,66.40
2018-07-08T10:28:35.136Z,63.50
2018-07-08T10:31:05.951Z,67.70
2018-07-08T10:33:45.196Z,66.10
2018-07-08T10:36:14.754Z,64.70
2018-07-08T10:38:44.241Z,66.70
2018-07-08T10:41:13.534Z,65.90
2018-07-08T10:43:42.861Z,63.50
2018-07-08T10:46:12.173Z,63.70
2018-07-08T10:48:41.507Z,63.90
2018-07-08T10:51:10.804Z,63.70
2018-07-08T10:53:40.174Z,63.60
2018-07-08T10:56:09.524Z,65.40
2018-07-08T10:58:38.862Z,63.20
2018-07-08T11:01:08.142Z,62.30
2018-07-08T11:03:37.445Z,63.00
2018-07-08T11:06:06.772Z,66.50
2018-07-08T11:08:36.195Z,65.90
2018-07-08T11:11:05.620Z,66.50
2018-07-08T11:13:34.920Z,64.60
2018-07-08T11:16:04.195Z,67.60
2018-07-08T11:18:33.520Z,62.30
2018-07-08T11:21:02.855Z,64.90
2018-07-08T11:23:32.204Z,64.40
2018-07-08T11:26:01.513Z,63.30
2018-07-08T11:28:31.122Z,62.50
2018-07-08T11:31:00.622Z,61.90
2018-07-08T11:33:30.183Z,62.30
2018-07-08T11:35:59.760Z,62.20
2018-07-08T11:38:29.240Z,64.20
2018-07-08T11:40:58.705Z,61.60
2018-07-08T11:43:28.284Z,62.90
2018-07-08T11:45:57.699Z,64.00
2018-07-08T11:48:27.205Z,65.90
2018-07-08T11:50:56.799Z,65.50
2018-07-08T11:53:26.281Z,64.60
2018-07-08T11:55:55.688Z,64.20
2018-07-08T11:58:24.944Z,62.30
2018-07-08T12:00:54.278Z,64.00
2018-07-08T12:03:23.572Z,64.50
2018-07-08T12:05:52.880Z,62.40
2018-07-08T12:08:22.154Z,59.30
2018-07-08T12:10:51.436Z,62.20
2018-07-08T12:13:20.735Z,63.60
2018-07-08T12:15:50.025Z,58.40
2018-07-08T12:18:19.316Z,60.20
2018-07-08T12:20:48.636Z,57.70
2018-07-08T12:23:17.922Z,59.30
2018-07-08T12:25:47.280Z,59.40
2018-07-08T12:28:16.561Z,59.60
2018-07-08T12:30:45.874Z,59.00
2018-07-08T12:33:15.271Z,60.60
2018-07-08T12:35:44.556Z,61.70
2018-07-08T12:38:13.848Z,57.90
2018-07-08T12:40:43.140Z,59.80
2018-07-08T12:43:12.436Z,58.80
2018-07-08T12:45:41.752Z,58.50
2018-07-08T12:48:11.044Z,56.00
2018-07-08T12:50:40.324Z,55.00
2018-07-08T12:53:09.626Z,57.50
2018-07-08T12:55:38.974Z,54.80
2018-07-08T12:58:08.264Z,55.00
2018-07-08T13:00:37.568Z,55.30
2018-07-08T13:03:06.884Z,54.20
2018-07-08T13:05:36.205Z,55.60
2018-07-08T13:08:05.594Z,53.50
2018-07-08T13:10:34.911Z,57.60
2018-07-08T13:13:04.255Z,54.00
2018-07-08T13:15:33.528Z,53.20
2018-07-08T13:18:02.832Z,56.90
2018-07-08T13:20:32.176Z,54.00
2018-07-08T13:23:01.429Z,51.90
2018-07-08T13:25:30.776Z,52.60
2018-07-08T13:36:58.849Z,51.50
2018-07-08T13:39:28.350Z,49.60
2018-07-08T13:41:57.860Z,45.90
2018-07-08T13:44:27.313Z,46.10
2018-07-08T13:46:56.792Z,48.70
2018-07-08T13:49:26.083Z,49.50
2018-07-08T13:51:55.391Z,45.40
2018-07-08T13:54:24.749Z,48.30
2018-07-08T13:56:54.083Z,48.10
2018-07-08T13:59:23.358Z,46.50
2018-07-08T14:01:52.949Z,46.40
2018-07-08T14:04:22.216Z,48.20
2018-07-08T14:06:51.521Z,46.60
2018-07-08T14:09:20.894Z,44.90
2018-07-08T14:11:50.197Z,46.90
2018-07-08T14:14:19.657Z,47.60
2018-07-08T14:16:49.110Z,46.40
2018-07-08T14:19:18.577Z,45.90
2018-07-08T14:21:48.131Z,44.30
2018-07-08T14:24:17.804Z,44.40
2018-07-08T14:26:47.231Z,47.50
2018-07-08T14:29:16.571Z,47.30
2018-07-08T14:31:45.899Z,46.70
2018-07-08T14:34:15.152Z,46.70
2018-07-08T14:36:44.453Z,45.20
2018-07-08T14:39:13.736Z,48.70
2018-07-08T14:41:43.006Z,49.50
2018-07-08T14:44:12.284Z,46.50
2018-07-08T14:46:41.600Z,42.90
2018-07-08T14:49:10.904Z,42.20
2018-07-08T14:51:40.188Z,44.70
2018-07-08T14:54:09.530Z,43.90
2018-07-08T14:56:38.800Z,43.70
2018-07-08T14:59:08.109Z,44.80
2018-07-08T15:01:37.402Z,45.00
2018-07-08T15:04:06.710Z,41.70
2018-07-08T15:06:36.001Z,43.80
2018-07-08T15:09:10.251Z,44.60
2018-07-08T15:11:39.659Z,45.70
2018-07-08T15:14:09.199Z,44.90
2018-07-08T15:16:38.501Z,44.50
2018-07-08T15:19:07.899Z,42.60
2018-07-08T15:21:37.146Z,44.60
2018-07-08T15:24:06.466Z,42.00
2018-07-08T15:26:35.732Z,41.80
2018-07-08T15:29:05.044Z,43.70
2018-07-08T15:31:34.448Z,41.40
2018-07-08T15:34:04.056Z,40.90
2018-07-08T15:36:33.511Z,42.10
2018-07-08T15:39:03.205Z,40.70
2018-07-08T15:41:32.617Z,42.00
2018-07-08T15:44:01.948Z,40.70
2018-07-08T15:46:31.233Z,38.90
2018-07-08T15:49:01.115Z,41.80
2018-07-08T15:51:30.387Z,42.00
2018-07-08T15:53:59.893Z,40.50
2018-07-08T15:56:29.240Z,39.50
2018-07-08T15:58:58.630Z,40.50
2018-07-08T16:01:28.007Z,39.50
2018-07-08T16:03:57.511Z,40.60
2018-07-08T16:06:26.981Z,39.90
2018-07-08T16:08:56.544Z,41.80
2018-07-08T16:11:26.128Z,41.80
2018-07-08T16:13:55.474Z,43.80
2018-07-08T16:16:24.752Z,42.30
2018-07-08T16:18:54.096Z,41.00
2018-07-08T16:21:23.355Z,41.30
2018-07-08T16:23:52.695Z,43.00
2018-07-08T16:26:22.164Z,41.00
2018-07-08T16:28:51.501Z,40.70
2018-07-08T16:31:20.739Z,44.00
2018-07-08T16:33:50.159Z,43.00
2018-07-08T16:36:19.476Z,42.80
2018-07-08T16:38:48.763Z,43.30
2018-07-08T16:41:18.109Z,43.10
2018-07-08T16:43:47.452Z,43.20
2018-07-08T16:46:17.676Z,42.80
2018-07-08T16:48:46.956Z,41.90
2018-07-08T16:51:16.277Z,44.50
2018-07-08T16:53:45.701Z,39.50
2018-07-08T16:56:15.102Z,41.00
2018-07-08T16:58:44.363Z,40.70
2018-07-08T17:01:13.706Z,38.80
2018-07-08T17:03:42.992Z,39.60
2018-07-08T17:06:12.293Z,40.60
2018-07-08T17:08:41.593Z,41.60
2018-07-08T17:11:10.883Z,43.20
2018-07-08T17:13:40.227Z,41.50
2018-07-08T17:16:09.566Z,42.40
2018-07-08T17:18:38.831Z,41.60
2018-07-08T17:21:08.204Z,40.20
2018-07-08T17:23:37.492Z,39.90
2018-07-08T17:26:06.806Z,40.60
2018-07-08T17:28:36.080Z,40.50
2018-07-08T17:31:05.428Z,42.00
2018-07-08T17:33:34.817Z,41.80
2018-07-08T17:36:04.103Z,41.30
2018-07-08T17:38:33.396Z,41.50
2018-07-08T17:41:02.804Z,41.90
2018-07-08T17:43:32.053Z,42.80
2018-07-08T17:46:01.624Z,43.30
2018-07-08T17:48:31.061Z,44.70
2018-07-08T17:51:00.426Z,45.20
2018-07-08T17:53:29.714Z,44.10
2018-07-08T17:55:59.064Z,43.80
2018-07-08T17:58:28.355Z,44.40
2018-07-08T18:00:57.733Z,45.00
2018-07-08T18:03:27.061Z,44.30
2018-07-08T18:05:56.333Z,44.70
2018-07-08T18:08:25.664Z,44.70
2018-07-08T18:10:54.952Z,45.70
2018-07-08T18:13:24.293Z,45.70
2018-07-08T18:15:53.621Z,46.30
2018-07-08T18:18:22.961Z,46.80
2018-07-08T18:20:52.223Z,46.10
2018-07-08T18:23:21.574Z,46.90
2018-07-08T18:25:50.902Z,47.30
2018-07-08T18:28:20.232Z,48.60
2018-07-08T18:30:49.575Z,48.60
2018-07-08T18:33:18.945Z,48.70
2018-07-08T18:35:48.258Z,48.60
2018-07-08T18:38:17.583Z,49.40
2018-07-08T18:40:46.929Z,49.60
2018-07-08T18:43:16.235Z,49.90
2018-07-08T18:45:45.551Z,50.70
2018-07-08T18:48:14.848Z,52.30
2018-07-08T18:50:44.116Z,51.70
2018-07-08T18:53:13.454Z,54.50
2018-07-08T18:55:42.800Z,54.70
2018-07-08T18:58:12.106Z,56.50
2018-07-08T19:00:41.473Z,57.90
2018-07-08T19:03:10.812Z,59.30
2018-07-08T19:05:40.146Z,60.50
2018-07-08T19:08:09.446Z,61.90
2018-07-08T19:10:38.726Z,62.20
2018-07-08T19:13:08.056Z,62.90
2018-07-08T19:15:37.324Z,64.50
2018-07-08T19:18:06.678Z,65.30
2018-07-08T19:20:36.020Z,66.10
2018-07-08T19:23:05.335Z,65.10
2018-07-08T19:25:34.677Z,65.10
2018-07-08T19:28:04.050Z,64.10
2018-07-08T19:30:34.277Z,65.50
2018-07-08T19:33:03.594Z,67.90
2018-07-08T19:35:32.882Z,64.30
2018-07-08T19:38:02.225Z,64.50
2018-07-08T19:40:31.581Z,63.90
2018-07-08T19:43:00.969Z,65.40
2018-07-08T19:45:30.491Z,66.50
2018-07-08T19:48:00.076Z,65.90
2018-07-08T19:50:29.653Z,69.30
2018-07-08T19:52:59.138Z,72.30
2018-07-08T19:55:28.735Z,71.10
2018-07-08T19:57:58.384Z,72.20
2018-07-08T20:00:27.724Z,72.00
2018-07-08T20:02:57.079Z,72.20
2018-07-08T20:05:26.509Z,73.70
2018-07-08T20:07:55.853Z,74.20
2018-07-08T20:10:25.174Z,73.20
2018-07-08T20:12:54.458Z,74.00
2018-07-08T20:15:23.777Z,75.20
2018-07-08T20:17:53.115Z,74.40
2018-07-08T20:20:22.508Z,77.60
2018-07-08T20:22:51.976Z,78.10
2018-07-08T20:25:21.258Z,75.80
2018-07-08T20:27:50.603Z,79.00
2018-07-08T20:30:20.036Z,78.60
2018-07-08T20:32:49.567Z,81.40
2018-07-08T20:35:19.142Z,80.20
2018-07-08T20:37:48.642Z,81.20
2018-07-08T20:40:18.152Z,81.80
2018-07-08T20:42:47.890Z,82.80
2018-07-08T20:45:17.444Z,84.30
2018-07-08T20:47:47.039Z,84.80
2018-07-08T20:50:16.630Z,85.50
2018-07-08T20:52:46.256Z,86.50
2018-07-08T20:55:15.629Z,87.40
2018-07-08T20:57:44.938Z,88.00
2018-07-08T21:00:14.477Z,89.00
2018-07-08T21:02:43.832Z,89.30
2018-07-08T21:05:13.176Z,89.80
2018-07-08T21:07:43.121Z,88.60
2018-07-08T21:10:12.448Z,90.00
2018-07-08T21:12:41.804Z,90.40
2018-07-08T21:15:11.098Z,90.60
2018-07-08T21:17:40.392Z,90.70
2018-07-08T21:20:09.712Z,91.00
2018-07-08T21:22:39.072Z,91.00
2018-07-08T21:25:08.926Z,91.00
2018-07-08T21:27:38.311Z,91.20
2018-07-08T21:30:07.664Z,91.30
2018-07-08T21:32:37.020Z,91.40
2018-07-08T21:35:06.608Z,91.60
2018-07-08T21:37:35.897Z,91.70
2018-07-08T21:40:05.233Z,91.80
2018-07-08T21:42:34.691Z,91.80
2018-07-08T21:45:04.100Z,91.80
2018-07-08T21:47:33.479Z,92.00
2018-07-08T21:50:02.760Z,92.10
2018-07-08T21:52:32.154Z,92.30
2018-07-08T21:55:01.455Z,92.40
2018-07-08T21:57:30.857Z,92.50
2018-07-08T22:00:00.220Z,93.00
2018-07-08T22:02:29.590Z,92.70
2018-07-08T22:04:58.875Z,92.80
2018-07-08T22:07:33.545Z,93.00
2018-07-08T22:10:02.850Z,93.30
2018-07-08T22:12:32.204Z,93.20
2018-07-08T22:15:01.528Z,92.90
2018-07-08T22:17:30.912Z,92.90
2018-07-08T22:20:00.192Z,93.20
2018-07-08T22:22:29.520Z,93.50
2018-07-08T22:24:58.789Z,93.80
2018-07-08T22:27:28.285Z,93.80
2018-07-08T22:29:57.848Z,94.00
2018-07-08T22:32:27.381Z,94.20
2018-07-08T22:34:56.940Z,94.50
2018-07-08T22:37:26.475Z,94.60
2018-07-08T22:39:55.792Z,94.40
2018-07-08T22:42:25.128Z,94.40
2018-07-08T22:45:00.980Z,94.80
2018-07-08T22:47:30.601Z,94.80
2018-07-08T22:50:00.075Z,95.00
2018-07-08T22:52:29.664Z,95.10
2018-07-08T22:54:59.015Z,95.40
2018-07-08T22:57:28.340Z,95.50
2018-07-08T23:00:08.764Z,95.70
2018-07-08T23:02:42.233Z,95.90
2018-07-08T23:05:11.850Z,96.00
2018-07-08T23:07:41.692Z,95.80
2018-07-08T23:10:11.996Z,95.90
2018-07-08T23:12:41.568Z,95.80
2018-07-08T23:15:10.932Z,95.70
2018-07-08T23:17:44.592Z,95.80
2018-07-08T23:20:13.887Z,95.80
2018-07-08T23:22:55.699Z,96.00
2018-07-08T23:25:25.252Z,96.10
2018-07-08T23:27:54.650Z,96.10
2018-07-08T23:30:23.923Z,96.10
2018-07-08T23:32:53.491Z,96.10
2018-07-08T23:35:22.773Z,96.40
2018-07-08T23:37:52.161Z,96.50
2018-07-08T23:40:21.509Z,96.40
2018-07-08T23:42:50.875Z,96.50
2018-07-08T23:45:21.126Z,96.40
2018-07-08T23:47:50.665Z,96.60
2018-07-08T23:50:20.170Z,96.70
2018-07-08T23:52:49.729Z,96.80
2018-07-08T23:55:19.329Z,97.10
2018-07-08T23:57:48.641Z,97.40
